createdAt,value
2023-02-28T00:01:27.440Z,77.83
2023-02-28T00:03:55.740Z,77.21
2023-02-28T00:06:23.744Z,77.25
2023-02-28T00:08:51.757Z,77.17
2023-02-28T00:11:21.068Z,77.32
2023-02-28T00:13:49.491Z,77.01
2023-02-28T00:16:18.750Z,76.78
2023-02-28T00:18:48.480Z,76.96
2023-02-28T00:21:17.048Z,77.01
2023-02-28T00:23:45.000Z,77.12
2023-02-28T00:26:13.149Z,77.22
2023-02-28T00:28:42.566Z,77.88
2023-02-28T00:31:10.657Z,77.57
2023-02-28T00:33:38.655Z,77.77
2023-02-28T00:36:07.474Z,77.52
2023-02-28T00:38:35.577Z,77.29
2023-02-28T00:41:06.207Z,77.25
2023-02-28T00:43:34.898Z,77.17
2023-02-28T00:46:04.550Z,77.27
2023-02-28T00:48:32.609Z,77.45
2023-02-28T00:51:00.772Z,77.02
2023-02-28T00:53:28.678Z,77.19
2023-02-28T00:55:56.714Z,77.35
2023-02-28T00:58:24.643Z,77.84
2023-02-28T01:00:53.002Z,77.19
2023-02-28T01:03:23.667Z,77.18
2023-02-28T01:05:51.708Z,76.48
2023-02-28T01:08:19.651Z,77.15
2023-02-28T01:10:47.622Z,77.11
2023-02-28T01:13:16.460Z,76.80
2023-02-28T01:15:47.658Z,76.93
2023-02-28T01:18:15.563Z,76.43
2023-02-28T01:20:45.623Z,76.82
2023-02-28T01:23:13.634Z,77.08
2023-02-28T01:25:41.812Z,76.82
2023-02-28T01:28:09.857Z,76.48
2023-02-28T01:30:38.134Z,77.12
2023-02-28T01:33:06.119Z,76.88
2023-02-28T01:35:34.706Z,76.58
2023-02-28T01:38:19.375Z,76.84
2023-02-28T01:40:49.756Z,76.73
2023-02-28T01:43:21.392Z,76.92
2023-02-28T01:45:49.449Z,77.17
2023-02-28T01:48:17.955Z,77.41
2023-02-28T01:50:47.242Z,77.09
2023-02-28T01:53:18.440Z,77.00
2023-02-28T01:55:49.576Z,77.09
2023-02-28T01:58:18.031Z,77.55
2023-02-28T02:00:46.026Z,77.80
2023-02-28T02:03:17.235Z,77.50
2023-02-28T02:05:48.887Z,77.98
2023-02-28T02:08:21.112Z,77.67
2023-02-28T02:10:52.231Z,77.31
2023-02-28T02:13:30.745Z,77.80
2023-02-28T02:16:04.359Z,77.83
2023-02-28T02:18:36.308Z,77.57
2023-02-28T02:21:19.110Z,77.80
2023-02-28T02:23:56.978Z,78.07
2023-02-28T02:26:37.467Z,78.22
2023-02-28T02:29:26.210Z,78.55
2023-02-28T02:32:04.636Z,77.83
2023-02-28T02:34:43.802Z,77.83
2023-02-28T02:37:16.311Z,78.48
2023-02-28T02:39:51.295Z,78.53
2023-02-28T02:42:23.895Z,77.86
2023-02-28T02:44:55.152Z,78.41
2023-02-28T02:47:25.416Z,78.28
2023-02-28T02:49:56.729Z,78.56
2023-02-28T02:52:27.634Z,78.43
2023-02-28T02:54:57.930Z,78.27
2023-02-28T02:57:28.034Z,77.96
2023-02-28T02:59:58.218Z,78.28
2023-02-28T03:02:27.156Z,78.10
2023-02-28T03:05:01.738Z,77.23
2023-02-28T03:07:31.144Z,77.53
2023-02-28T03:09:59.660Z,77.51
2023-02-28T03:12:48.445Z,77.53
2023-02-28T03:15:20.818Z,77.72
2023-02-28T03:17:59.694Z,77.42
2023-02-28T03:20:35.846Z,77.37
2023-02-28T03:23:10.480Z,77.60
2023-02-28T03:25:40.654Z,77.18
2023-02-28T03:28:12.417Z,77.21
2023-02-28T03:30:43.976Z,77.21
2023-02-28T03:33:15.203Z,76.97
2023-02-28T03:35:46.849Z,76.86
2023-02-28T03:38:17.013Z,77.03
2023-02-28T03:40:47.710Z,77.17
2023-02-28T03:43:19.107Z,77.25
2023-02-28T03:45:48.012Z,76.89
2023-02-28T03:48:18.371Z,77.32
2023-02-28T03:50:50.083Z,77.58
2023-02-28T03:53:21.495Z,77.34
2023-02-28T03:55:51.223Z,76.94
2023-02-28T03:58:24.149Z,76.52
2023-02-28T04:00:57.069Z,77.13
2023-02-28T04:03:25.634Z,77.20
2023-02-28T04:05:56.809Z,76.35
2023-02-28T04:08:24.867Z,76.80
2023-02-28T04:10:56.614Z,77.19
2023-02-28T04:13:24.504Z,77.19
2023-02-28T04:15:52.547Z,76.37
2023-02-28T04:18:20.702Z,76.23
2023-02-28T04:20:48.646Z,76.62
2023-02-28T04:23:18.100Z,76.39
2023-02-28T04:25:46.015Z,76.23
2023-02-28T04:28:14.029Z,76.07
2023-02-28T04:30:42.041Z,76.11
2023-02-28T04:33:09.891Z,75.94
2023-02-28T04:35:37.919Z,75.25
2023-02-28T04:38:05.902Z,75.38
2023-02-28T04:40:35.204Z,75.02
2023-02-28T04:43:04.446Z,75.15
2023-02-28T04:45:34.976Z,74.49
2023-02-28T04:48:02.943Z,74.19
2023-02-28T04:50:30.859Z,74.37
2023-02-28T04:52:59.112Z,73.34
2023-02-28T04:55:27.219Z,73.43
2023-02-28T04:57:56.725Z,73.43
2023-02-28T05:00:24.911Z,72.96
2023-02-28T05:02:52.762Z,72.85
2023-02-28T05:05:20.834Z,72.20
2023-02-28T05:07:49.010Z,71.77
2023-02-28T05:10:17.090Z,71.25
2023-02-28T05:12:45.035Z,70.90
2023-02-28T05:15:15.301Z,70.17
2023-02-28T05:17:43.514Z,69.95
2023-02-28T05:20:15.667Z,69.41
2023-02-28T05:22:44.510Z,68.59
2023-02-28T05:25:14.971Z,68.58
2023-02-28T05:27:43.048Z,68.32
2023-02-28T05:30:12.528Z,68.00
2023-02-28T05:32:43.944Z,67.67
2023-02-28T05:35:12.318Z,67.54
2023-02-28T05:37:40.768Z,67.49
2023-02-28T05:40:11.487Z,67.26
2023-02-28T05:42:40.983Z,66.90
2023-02-28T05:45:09.878Z,66.85
2023-02-28T05:47:38.200Z,66.35
2023-02-28T05:50:08.524Z,65.98
2023-02-28T05:52:36.511Z,65.71
2023-02-28T05:55:04.499Z,66.28
2023-02-28T05:57:32.440Z,65.50
2023-02-28T06:00:00.428Z,65.17
2023-02-28T06:02:28.531Z,64.43
2023-02-28T06:04:56.654Z,64.27
2023-02-28T06:07:25.991Z,64.98
2023-02-28T06:09:53.887Z,64.23
2023-02-28T06:12:22.018Z,64.50
2023-02-28T06:14:50.438Z,63.94
2023-02-28T06:17:18.410Z,63.66
2023-02-28T06:19:46.407Z,63.52
2023-02-28T06:22:14.746Z,63.09
2023-02-28T06:24:44.020Z,62.66
2023-02-28T06:27:12.435Z,62.09
2023-02-28T06:29:41.341Z,62.42
2023-02-28T06:32:09.523Z,62.05
2023-02-28T06:34:37.939Z,61.41
2023-02-28T06:37:06.187Z,61.38
2023-02-28T06:39:34.298Z,60.91
2023-02-28T06:42:04.084Z,60.15
2023-02-28T06:44:36.267Z,60.04
2023-02-28T06:47:05.705Z,59.58
2023-02-28T06:49:33.976Z,59.38
2023-02-28T06:52:01.909Z,59.16
2023-02-28T06:54:30.075Z,58.94
2023-02-28T06:56:59.616Z,59.16
2023-02-28T06:59:29.030Z,58.57
2023-02-28T07:01:57.382Z,58.23
2023-02-28T07:04:25.496Z,58.41
2023-02-28T07:06:53.501Z,58.61
2023-02-28T07:09:21.589Z,58.45
2023-02-28T07:11:50.024Z,58.17
2023-02-28T07:14:18.123Z,58.58
2023-02-28T07:16:47.760Z,58.59
2023-02-28T07:19:15.741Z,58.67
2023-02-28T07:21:43.937Z,58.89
2023-02-28T07:24:11.929Z,58.70
2023-02-28T07:26:40.100Z,58.74
2023-02-28T07:29:08.149Z,58.84
2023-02-28T07:31:36.038Z,59.00
2023-02-28T07:34:05.734Z,59.28
2023-02-28T07:36:33.788Z,58.84
2023-02-28T07:39:01.849Z,59.36
2023-02-28T07:41:31.396Z,59.65
2023-02-28T07:44:00.773Z,59.27
2023-02-28T07:46:30.963Z,58.66
2023-02-28T07:49:00.652Z,59.22
2023-02-28T07:51:30.398Z,58.57
2023-02-28T07:53:58.674Z,58.86
2023-02-28T07:56:26.796Z,59.19
2023-02-28T07:58:54.917Z,59.50
2023-02-28T08:01:23.166Z,59.45
2023-02-28T08:03:51.081Z,59.89
2023-02-28T08:06:20.114Z,60.44
2023-02-28T08:08:49.815Z,59.34
2023-02-28T08:11:18.384Z,59.40
2023-02-28T08:13:46.948Z,59.09
2023-02-28T08:16:18.756Z,58.42
2023-02-28T08:18:46.977Z,58.54
2023-02-28T08:21:14.964Z,58.61
2023-02-28T08:23:42.937Z,58.30
2023-02-28T08:26:12.422Z,58.66
2023-02-28T08:28:40.664Z,58.05
2023-02-28T08:31:12.678Z,57.99
2023-02-28T08:33:41.318Z,57.83
2023-02-28T08:36:10.265Z,58.21
2023-02-28T08:38:38.476Z,58.10
2023-02-28T08:41:08.552Z,57.98
2023-02-28T08:43:38.245Z,57.99
2023-02-28T08:46:06.973Z,57.22
2023-02-28T08:48:36.378Z,56.90
2023-02-28T08:51:07.725Z,57.91
2023-02-28T08:53:36.164Z,58.43
2023-02-28T08:56:05.652Z,59.18
2023-02-28T08:58:34.701Z,60.30
2023-02-28T09:01:09.697Z,59.92
2023-02-28T09:03:37.773Z,61.37
2023-02-28T09:06:07.099Z,61.65
2023-02-28T09:08:35.075Z,62.03
2023-02-28T09:11:04.099Z,62.65
2023-02-28T09:13:33.332Z,62.00
2023-02-28T09:16:02.070Z,62.66
2023-02-28T09:18:31.432Z,62.78
2023-02-28T09:20:59.796Z,62.51
2023-02-28T09:23:27.847Z,61.64
2023-02-28T09:25:56.530Z,62.10
2023-02-28T09:28:24.638Z,62.20
2023-02-28T09:30:54.265Z,62.25
2023-02-28T09:33:22.970Z,61.65
2023-02-28T09:35:52.820Z,61.82
2023-02-28T09:38:21.079Z,61.63
2023-02-28T09:40:51.152Z,62.98
2023-02-28T09:43:20.255Z,63.18
2023-02-28T09:45:50.979Z,62.61
2023-02-28T09:48:23.095Z,63.03
2023-02-28T09:50:52.410Z,63.06
2023-02-28T09:53:24.731Z,63.64
2023-02-28T09:55:56.085Z,63.45
2023-02-28T09:58:28.447Z,63.49
2023-02-28T10:01:02.652Z,63.18
2023-02-28T10:03:32.676Z,63.31
2023-02-28T10:06:04.757Z,63.55
2023-02-28T10:08:36.266Z,63.25
2023-02-28T10:11:05.962Z,63.81
2023-02-28T10:13:35.936Z,63.69
2023-02-28T10:16:06.463Z,63.55
2023-02-28T10:18:40.706Z,63.85
2023-02-28T10:21:12.240Z,63.25
2023-02-28T10:23:41.673Z,63.16
2023-02-28T10:26:13.789Z,63.21
2023-02-28T10:28:42.129Z,63.71
2023-02-28T10:31:13.543Z,62.94
2023-02-28T10:33:43.364Z,63.22
2023-02-28T10:36:15.473Z,63.19
2023-02-28T10:38:45.276Z,63.55
2023-02-28T10:41:14.000Z,63.74
2023-02-28T10:43:42.596Z,64.29
2023-02-28T10:46:16.469Z,64.40
2023-02-28T10:48:46.413Z,65.50
2023-02-28T10:51:15.082Z,65.70
2023-02-28T10:54:00.540Z,65.91
2023-02-28T10:56:29.270Z,66.01
2023-02-28T10:58:58.373Z,66.00
2023-02-28T11:01:27.437Z,66.53
2023-02-28T11:03:55.596Z,66.67
2023-02-28T11:06:24.899Z,67.16
2023-02-28T11:08:55.335Z,67.54
2023-02-28T11:11:25.041Z,67.05
2023-02-28T11:13:54.924Z,67.86
2023-02-28T11:16:23.173Z,67.87
2023-02-28T11:18:52.296Z,67.73
2023-02-28T11:21:25.871Z,67.77
2023-02-28T11:23:57.650Z,68.65
2023-02-28T11:26:46.592Z,67.84
2023-02-28T11:29:20.174Z,67.80
2023-02-28T11:32:03.193Z,67.80
2023-02-28T11:34:31.822Z,68.02
2023-02-28T11:37:01.511Z,68.01
2023-02-28T11:39:31.139Z,68.60
2023-02-28T11:42:09.839Z,68.11
2023-02-28T11:44:44.046Z,67.54
2023-02-28T11:47:15.995Z,67.27
2023-02-28T11:49:49.895Z,67.96
2023-02-28T11:52:23.281Z,68.89
2023-02-28T11:55:00.733Z,68.60
2023-02-28T11:57:35.072Z,68.58
2023-02-28T12:00:05.377Z,68.91
2023-02-28T12:02:38.472Z,68.60
2023-02-28T12:05:14.088Z,68.69
2023-02-28T12:07:48.899Z,69.02
2023-02-28T12:10:22.794Z,69.14
2023-02-28T12:12:54.868Z,70.20
2023-02-28T12:15:30.360Z,70.82
2023-02-28T12:18:02.361Z,72.06
2023-02-28T12:20:36.008Z,73.61
2023-02-28T12:23:13.239Z,74.54
2023-02-28T12:25:49.287Z,74.68
2023-02-28T12:28:18.715Z,74.83
2023-02-28T12:30:52.514Z,74.80
2023-02-28T12:33:22.956Z,73.96
2023-02-28T12:35:53.479Z,74.43
2023-02-28T12:38:23.524Z,74.88
2023-02-28T12:40:55.131Z,75.25
2023-02-28T12:43:24.852Z,75.55
2023-02-28T12:45:54.833Z,76.62
2023-02-28T12:48:26.576Z,77.03
2023-02-28T12:50:54.605Z,78.30
2023-02-28T12:53:27.781Z,78.05
2023-02-28T12:56:01.633Z,77.53
2023-02-28T12:58:33.482Z,77.54
2023-02-28T13:01:15.795Z,77.73
2023-02-28T13:04:01.519Z,77.80
2023-02-28T13:06:42.328Z,77.89
2023-02-28T13:09:15.773Z,77.47
2023-02-28T13:11:45.962Z,78.19
2023-02-28T13:14:25.810Z,77.23
2023-02-28T13:16:58.580Z,76.86
2023-02-28T13:19:27.656Z,76.99
2023-02-28T13:21:56.028Z,76.59
2023-02-28T13:24:45.009Z,76.46
2023-02-28T13:27:26.454Z,76.74
2023-02-28T13:29:55.082Z,76.78
2023-02-28T13:32:34.081Z,76.81
2023-02-28T13:35:16.137Z,76.38
2023-02-28T13:37:45.206Z,76.66
2023-02-28T13:40:30.500Z,76.04
2023-02-28T13:42:59.911Z,76.96
2023-02-28T13:45:31.105Z,76.40
2023-02-28T13:48:02.001Z,76.38
2023-02-28T13:50:32.112Z,76.26
2023-02-28T13:53:14.169Z,76.70
2023-02-28T13:55:47.150Z,76.57
2023-02-28T13:58:28.468Z,76.58
2023-02-28T14:01:14.565Z,76.71
2023-02-28T14:04:09.445Z,76.70
2023-02-28T14:06:38.853Z,76.92
2023-02-28T14:09:19.162Z,76.53
2023-02-28T14:11:47.850Z,76.49
2023-02-28T14:14:31.057Z,76.89
2023-02-28T14:17:00.569Z,76.78
2023-02-28T14:19:30.067Z,76.73
2023-02-28T14:22:08.545Z,77.13
2023-02-28T14:24:57.309Z,76.88
2023-02-28T14:27:40.738Z,77.19
2023-02-28T14:30:23.466Z,77.36
2023-02-28T14:33:00.909Z,78.26
2023-02-28T14:35:37.312Z,78.94
2023-02-28T14:38:08.373Z,79.10
2023-02-28T14:40:37.311Z,79.38
2023-02-28T14:43:06.493Z,78.87
2023-02-28T14:45:35.669Z,79.12
2023-02-28T14:48:06.734Z,80.42
2023-02-28T14:50:36.243Z,81.19
2023-02-28T14:53:04.769Z,80.93
2023-02-28T14:55:33.764Z,81.52
2023-02-28T14:58:03.986Z,80.71
2023-02-28T15:00:32.580Z,80.88
2023-02-28T15:03:01.552Z,81.54
2023-02-28T15:05:32.504Z,80.92
2023-02-28T15:08:05.337Z,81.54
2023-02-28T15:10:33.740Z,80.46
2023-02-28T15:13:02.673Z,81.66
2023-02-28T15:15:46.082Z,81.17
2023-02-28T15:18:25.961Z,81.25
2023-02-28T15:20:56.166Z,81.84
2023-02-28T15:23:24.517Z,81.54
2023-02-28T15:25:53.529Z,81.21
2023-02-28T15:28:23.484Z,81.13
2023-02-28T15:30:56.392Z,81.20
2023-02-28T15:33:26.131Z,80.71
2023-02-28T15:36:05.872Z,81.12
2023-02-28T15:38:36.632Z,80.68
2023-02-28T15:41:09.319Z,80.52
2023-02-28T15:43:38.526Z,80.55
2023-02-28T15:46:08.552Z,80.24
2023-02-28T15:48:38.162Z,80.17
2023-02-28T15:51:10.902Z,80.15
2023-02-28T15:53:40.383Z,80.15
2023-02-28T15:56:14.847Z,79.92
2023-02-28T15:58:44.283Z,80.33
2023-02-28T16:01:23.210Z,79.99
2023-02-28T16:03:52.634Z,79.53
2023-02-28T16:06:39.038Z,79.53
2023-02-28T16:09:09.089Z,79.63
2023-02-28T16:11:39.900Z,80.21
2023-02-28T16:14:07.941Z,79.92
2023-02-28T16:16:36.128Z,79.70
2023-02-28T16:19:04.331Z,79.67
2023-02-28T16:21:32.556Z,79.55
2023-02-28T16:24:01.916Z,79.44
2023-02-28T16:26:29.956Z,79.54
2023-02-28T16:28:57.926Z,78.79
2023-02-28T16:31:25.950Z,78.95
2023-02-28T16:33:54.035Z,78.65
2023-02-28T16:36:23.258Z,78.51
2023-02-28T16:38:51.597Z,78.78
2023-02-28T16:41:22.209Z,78.90
2023-02-28T16:43:50.983Z,78.50
2023-02-28T16:46:19.762Z,78.66
2023-02-28T16:48:49.682Z,77.97
2023-02-28T16:51:18.088Z,77.94
2023-02-28T16:53:46.794Z,78.42
2023-02-28T16:56:17.648Z,78.08
2023-02-28T16:58:47.189Z,78.01
2023-02-28T17:01:15.565Z,77.90
2023-02-28T17:03:43.837Z,78.25
2023-02-28T17:06:18.888Z,78.65
2023-02-28T17:08:47.211Z,78.23
2023-02-28T17:11:15.358Z,78.03
2023-02-28T17:13:43.319Z,78.17
2023-02-28T17:16:16.803Z,78.99
2023-02-28T17:18:44.867Z,78.85
2023-02-28T17:21:15.654Z,78.28
2023-02-28T17:23:43.746Z,77.82
2023-02-28T17:26:15.104Z,78.28
2023-02-28T17:28:43.530Z,78.27
2023-02-28T17:31:11.691Z,78.41
2023-02-28T17:33:41.218Z,80.44
2023-02-28T17:36:13.970Z,80.18
2023-02-28T17:38:41.968Z,81.13
2023-02-28T17:41:11.822Z,80.45
2023-02-28T17:43:39.840Z,81.00
2023-02-28T17:46:08.238Z,81.02
2023-02-28T17:48:36.979Z,80.81
2023-02-28T17:51:06.592Z,80.51
2023-02-28T17:53:34.757Z,80.07
2023-02-28T17:56:03.075Z,80.37
2023-02-28T17:58:32.162Z,80.18
2023-02-28T18:01:00.414Z,80.05
2023-02-28T18:03:29.235Z,80.56
2023-02-28T18:05:57.933Z,80.13
2023-02-28T18:08:27.731Z,79.30
2023-02-28T18:10:55.688Z,79.35
2023-02-28T18:13:23.653Z,78.80
2023-02-28T18:15:51.692Z,76.48
2023-02-28T18:18:19.657Z,74.48
2023-02-28T18:20:49.497Z,75.51
2023-02-28T18:23:18.307Z,76.40
2023-02-28T18:25:47.654Z,76.22
2023-02-28T18:28:15.704Z,76.88
2023-02-28T18:30:43.696Z,76.94
2023-02-28T18:33:11.539Z,75.66
2023-02-28T18:35:40.130Z,75.16
2023-02-28T18:38:09.412Z,74.93
2023-02-28T18:40:38.267Z,74.51
2023-02-28T18:43:07.623Z,72.56
2023-02-28T18:45:37.058Z,71.53
2023-02-28T18:48:05.122Z,72.01
2023-02-28T18:50:33.226Z,70.66
2023-02-28T18:53:03.408Z,69.07
2023-02-28T18:55:32.442Z,69.20
2023-02-28T18:58:00.455Z,69.71
2023-02-28T19:00:29.974Z,69.80
2023-02-28T19:02:57.869Z,69.72
2023-02-28T19:05:25.907Z,68.72
2023-02-28T19:07:53.963Z,69.87
2023-02-28T19:10:22.097Z,70.08
2023-02-28T19:12:50.034Z,69.75
2023-02-28T19:15:18.066Z,69.30
2023-02-28T19:17:47.452Z,69.06
2023-02-28T19:20:15.582Z,69.56
2023-02-28T19:22:44.354Z,69.76
2023-02-28T19:25:12.552Z,69.80
2023-02-28T19:27:40.759Z,69.83
2023-02-28T19:30:09.690Z,69.01
2023-02-28T19:32:38.091Z,68.02
2023-02-28T19:35:08.024Z,68.55
2023-02-28T19:37:38.346Z,67.72
2023-02-28T19:40:06.677Z,66.24
2023-02-28T19:42:35.210Z,65.47
2023-02-28T19:45:03.232Z,65.70
2023-02-28T19:47:32.240Z,63.00
2023-02-28T19:50:00.369Z,63.72
2023-02-28T19:52:29.841Z,60.95
2023-02-28T19:54:57.901Z,57.88
2023-02-28T19:57:26.005Z,58.46
2023-02-28T19:59:57.076Z,58.61
2023-02-28T20:02:26.458Z,58.30
2023-02-28T20:04:55.109Z,59.20
2023-02-28T20:07:26.211Z,59.71
2023-02-28T20:09:55.539Z,56.41
2023-02-28T20:12:24.913Z,56.81
2023-02-28T20:14:53.285Z,57.28
2023-02-28T20:17:21.245Z,55.62
2023-02-28T20:19:49.826Z,56.63
2023-02-28T20:22:17.893Z,56.24
2023-02-28T20:24:45.859Z,55.68
2023-02-28T20:27:15.743Z,55.19
2023-02-28T20:29:43.910Z,54.86
2023-02-28T20:32:13.302Z,55.05
2023-02-28T20:34:41.296Z,54.84
2023-02-28T20:37:09.274Z,51.67
2023-02-28T20:39:37.333Z,52.57
2023-02-28T20:42:05.443Z,51.79
2023-02-28T20:44:34.821Z,50.98
2023-02-28T20:47:02.806Z,49.91
2023-02-28T20:49:30.743Z,49.67
2023-02-28T20:51:58.782Z,50.52
2023-02-28T20:54:26.871Z,48.62
2023-02-28T20:56:55.122Z,48.43
2023-02-28T20:59:23.235Z,48.78
2023-02-28T21:01:56.354Z,48.98
2023-02-28T21:04:24.773Z,48.91
2023-02-28T21:06:53.630Z,49.50
2023-02-28T21:09:21.605Z,49.50
2023-02-28T21:11:49.829Z,48.04
2023-02-28T21:14:18.847Z,47.66
2023-02-28T21:16:47.010Z,47.96
2023-02-28T21:19:18.687Z,48.57
2023-02-28T21:21:48.418Z,48.77
2023-02-28T21:24:17.438Z,49.06
2023-02-28T21:26:47.210Z,50.03
2023-02-28T21:29:15.513Z,49.18
2023-02-28T21:31:43.595Z,49.20
2023-02-28T21:34:12.865Z,49.32
2023-02-28T21:36:45.356Z,49.36
2023-02-28T21:39:14.833Z,49.34
2023-02-28T21:41:42.883Z,49.85
2023-02-28T21:44:18.647Z,49.84
2023-02-28T21:46:47.311Z,50.36
2023-02-28T21:49:15.808Z,50.78
2023-02-28T21:51:45.588Z,51.27
2023-02-28T21:54:14.011Z,51.41
2023-02-28T21:56:42.224Z,51.98
2023-02-28T21:59:10.265Z,52.01
2023-02-28T22:01:39.416Z,52.21
2023-02-28T22:04:08.202Z,51.53
2023-02-28T22:06:37.199Z,51.28
2023-02-28T22:09:07.532Z,51.00
2023-02-28T22:11:36.016Z,50.75
2023-02-28T22:14:04.065Z,51.68
2023-02-28T22:16:40.839Z,51.23
2023-02-28T22:19:16.794Z,52.25
2023-02-28T22:21:45.840Z,52.64
2023-02-28T22:24:17.871Z,52.90
2023-02-28T22:26:46.187Z,53.00
2023-02-28T22:29:14.210Z,53.26
2023-02-28T22:31:42.344Z,53.45
2023-02-28T22:34:12.001Z,53.26
2023-02-28T22:36:41.880Z,53.63
2023-02-28T22:39:10.073Z,53.81
2023-02-28T22:41:39.797Z,53.75
2023-02-28T22:44:08.234Z,53.75
2023-02-28T22:46:36.869Z,53.71
2023-02-28T22:49:05.545Z,54.14
2023-02-28T22:51:33.774Z,54.18
2023-02-28T22:54:02.157Z,54.21
2023-02-28T22:56:30.956Z,54.83
2023-02-28T22:59:01.220Z,54.84
2023-02-28T23:01:30.139Z,54.36
2023-02-28T23:03:58.467Z,54.89
2023-02-28T23:06:27.542Z,54.50
2023-02-28T23:08:57.116Z,54.66
2023-02-28T23:11:26.183Z,55.03
2023-02-28T23:14:00.287Z,55.16
2023-02-28T23:16:31.308Z,55.04
2023-02-28T23:19:00.868Z,55.35
2023-02-28T23:21:29.389Z,55.08
2023-02-28T23:23:57.358Z,55.16
2023-02-28T23:26:25.526Z,55.33
2023-02-28T23:28:53.517Z,55.04
2023-02-28T23:31:22.021Z,55.20
2023-02-28T23:33:51.324Z,55.03
2023-02-28T23:36:19.459Z,54.90
2023-02-28T23:38:48.638Z,55.07
2023-02-28T23:41:16.789Z,54.53
2023-02-28T23:43:45.005Z,55.05
2023-02-28T23:46:14.085Z,54.97
2023-02-28T23:48:42.283Z,54.93
2023-02-28T23:51:12.488Z,55.16
2023-02-28T23:53:41.433Z,55.44
2023-02-28T23:56:10.961Z,55.27
2023-02-28T23:58:38.931Z,55.14
